Dawn, TX (79025)

3:15 PM CDT on September 03, 2015 (GMT -0500)
Hereford Municipal | | Change Station
CLOSE
Current Station
Airport
Location: Hereford,
Elevation: 3786 ft
Nearby Weather Stations

Elev 3786 ft 34.86 °N, 102.33 °W | Updated 25 minutes ago

Partly Cloudy
Partly Cloudy
95 °F
Feels Like 92 °F
N
8
Wind Variable Wind from South
Gusts 18 mph

Today
High -- | Low -- °F
--% Chance of Precip.
Yesterday
High -- | Low -- °F
Precip. -- in
7:22 AM 8:12 PM
Waning Gibbous, 67% visible
Pressure 29.97 in
Visibility 10.0 miles
Clouds Clear
Heat Index 92 °F
Dew Point 54 °F
Humidity 25%
Rainfall 0.00 in
Snow Depth Not available.
UV 10 out of 12
Pollen 10.50 out of 12
Air Quality Not available.
Flu Activity Not available.
METAR KHRX 031950Z AUTO 19007G16KT 10SM CLR 35/12 A2997 RMK AO2 T03480121
Pressure 29.97 in
Visibility 10.0 miles
Clouds Clear
Heat Index 92 °F
Dew Point 54 °F
Humidity 25%
Rainfall 0.00 in
Snow Depth Not available.
UV 10 out of 12
Pollen 10.50 out of 12
Air Quality Not available.
Flu Activity Not available.
METAR KHRX 031950Z AUTO 19007G16KT 10SM CLR 35/12 A2997 RMK AO2 T03480121

10-Day Weather Forecast

×

Almanac

Astronomy

Sep. 03, 2015 Rise Set
Actual Time
Civil Twilight
Nautical Twilight
Astronomical Twilight
Moon
Length of Visible Light
Length of Day
Tomorrow will be .
, % of the Moon is Illuminated

Today's Extremes

State Highs State Lows

Community

WunderPhotos

Upload Photos

1,852,019 photos uploaded!

WunderBlogs® & News

Nearby

Air Quality

  Air Quality AQ Index Pollutant
Not available.

Snow Depth

Station Depth Elevation

Earthquake Activity

City Distance Mag. Time & Date
Minimum magnitude displayed is 2.5.

Coastal Water Temperatures

Place Temperature

Stations

Nearby Weather Stations

Station Location Temp. Windchill Dew Point Humidity Wind Precip. Elev Updated Type